• Join FlightAware (Why Join?)
  • Login
  • US Flag 
11:52PM EDT


 

Airport Tracker/Info


-or-


 

Live Flight TrackerFlight Track Log ✈ N35079 ✈ 26-Nov-2013 ✈ KFXE - KISM

Flight Track Log - Related Links

Times and Time Zones

All times are in EST time to prevent confusion due to time zone crossing. See the N35079 flight status page for this flight to view local times or setup timezone preferences in your user account.

Time Position Orientation Groundspeed Altitude Reporting Facility
EST Latitude Longitude Course Direction KTS MPH feet Rate Location/Type
05:28PM 26.8069 -80.5294 327° Northwest 117 135 8,400  Level Miami Center
05:29PM 26.8358 -80.5467 332° Northwest 117 135 8,500  Climbing Miami Center
05:30PM 27.1637 -80.7488 330° Northwest  Level Estimated
05:30PM 26.8625 -80.5614 334° Northwest 123 142 8,500  Level Miami Center
05:31PM 27.1993 -80.7703 344° North  Level Estimated
05:31PM 26.8956 -80.5786 335° Northwest 123 142 8,500  Level Miami Center
05:32PM 27.2350 -80.7916 332° Northwest  Level FlightAware Approximate
05:32PM 26.9242 -80.5983 328° Northwest 123 142 8,500  Level Miami Center
05:33PM 27.2705 -80.8131 327° Northwest  Level Estimated
05:33PM 26.9614 -80.6158 337° Northwest 128 147 8,500  Level Miami Center
05:34PM 26.9881 -80.6353 327° Northwest 132 152 8,500 -60 Level Miami Center
05:35PM 27.0128 -80.6525 328° Northwest 129 148 8,400 -60 Descending Miami Center
05:36PM 27.0414 -80.6719 329° Northwest 124 143 8,400  Level Miami Center
05:37PM 27.0722 -80.6917 330° Northwest 119 137 8,400  Level Miami Center
05:38PM 27.1031 -80.7067 337° Northwest 119 137 8,400  Level Miami Center
05:39PM 27.1319 -80.7239 332° Northwest 119 137 8,400  Level Miami Center
05:40PM 27.1567 -80.7386 332° Northwest 114 131 8,400  Level Miami Center
05:41PM 27.1853 -80.7583 328° Northwest 109 125 8,500  Climbing Miami Center
05:42PM 27.2161 -80.7781 330° Northwest 114 131 8,500 -60 Level Miami Center
05:43PM 27.2428 -80.7953 330° Northwest 114 131 8,400 -60 Descending Miami Center
05:44PM 27.2672 -80.8103 331° Northwest 114 131 8,400  Level Miami Center
05:45PM 27.2961 -80.8253 335° Northwest 114 131 8,400  Level Miami Center
05:46PM 27.3269 -80.8450 330° Northwest 114 131 8,500  Climbing Miami Center
05:47PM 27.3556 -80.8622 332° Northwest 114 131 8,400 -60 Descending Miami Center
05:48PM 27.3844 -80.8819 329° Northwest 114 131 8,400  Level Miami Center
05:49PM 27.4131 -80.8994 332° Northwest 114 131 8,400  Level Miami Center
05:50PM 27.4417 -80.9192 329° Northwest 114 131 8,400  Level Miami Center
05:51PM 27.4603 -80.9339 325° Northwest 114 131 8,400  Level Miami Center
05:52PM 27.4928 -80.9583 326° Northwest 119 137 8,400  Level Miami Center
05:53PM 27.5194 -80.9758 330° Northwest 119 137 8,400  Level Miami Center
05:54PM 27.5528 -80.9839 348° North 119 137 8,400  Level Miami Center
05:55PM 27.5753 -80.9964 334° Northwest 110 127 8,400  Level Miami Center
05:56PM 27.6017 -81.0186 323° Northwest 110 127 8,500 -360 Climbing Miami Center
05:58PM 27.6500 -81.0500 330° Northwest 116 133 7,500 -840 Descending Orlando TRACON
05:59PM 27.6833 -81.0667 336° Northwest 117 135 6,200 -1,200 Descending Orlando TRACON
06:00PM 27.7000 -81.1000 299° West 110 127 5,100 -1,020 Descending Orlando TRACON
06:01PM 27.7333 -81.1000 360° North 152 175 4,200 -420 Descending Orlando TRACON
06:02PM 27.7667 -81.1000 360° North 127 146 4,300  Climbing Orlando TRACON
06:03PM 27.8167 -81.1167 344° North 135 155 4,300  Level Orlando TRACON
06:04PM 27.8500 -81.1333 336° Northwest 127 146 4,400 60 Climbing Orlando TRACON
06:05PM 27.8667 -81.1500 319° Northwest 121 139 4,500  Climbing Orlando TRACON
06:06PM 27.9000 -81.1667 336° Northwest 131 151 4,500  Level Orlando TRACON
06:07PM 27.9333 -81.1833 336° Northwest 130 150 4,500 -180 Level Orlando TRACON
06:08PM 27.9667 -81.2167 319° Northwest 130 150 4,200 -420 Descending Orlando TRACON
06:09PM 28.0000 -81.2333 336° Northwest 129 148 3,700 -960 Descending Orlando TRACON
06:10PM 28.0167 -81.2500 319° Northwest 117 135 2,400 -960 Descending Orlando TRACON
06:11PM 28.0500 -81.2833 319° Northwest 128 147 1,700 -600 Descending Orlando TRACON
06:12PM 28.0833 -81.3000 336° Northwest 118 136 1,200 -360 Descending Orlando TRACON
06:13PM 28.1000 -81.3333 300° West 119 137 1,100  Descending Orlando TRACON
06:14PM 28.1333 -81.3500 336° Northwest 118 136 1,300 60 Climbing Orlando TRACON
06:15PM 28.1500 -81.3667 319° Northwest 118 136 1,300 -120 Level Orlando TRACON
06:16PM 28.1833 -81.3667 360° North 118 136 1,100 -240 Descending Orlando TRACON
06:17PM 28.2167 -81.3833 336° Northwest 119 137 900 -120 Descending Orlando TRACON
06:18PM 28.2500 -81.4000 336° Northwest 116 133 900 -60 Level Orlando TRACON
06:19PM 28.2833 -81.4167 336° Northwest 108 124 800  Descending Orlando TRACON
06:20PM 28.3000 -81.4167 360° North 112 129 900 -180 Climbing Orlando TRACON
06:21PM 28.3167 -81.4500 300° West 76 87 500 -420 Descending Orlando TRACON